Time;durP1;ratioP1;P1;durP2;ratioP2;P2;SDS_P1;SDS_P2;PMS_P1;PMS_P2;Temp;Humidity;BMP_temperature;BMP_pressure;BME280_temperature;BME280_humidity;BME280_pressure;Samples;Min_cycle;Max_cycle;Signal;HPM_P1;HPM_P2
2024/01/18 00:00:34;;;;;;;;;;;;;;;3.26;64.23;99404.03;3109346;28;19921;-74
2024/01/18 00:02:05;;;;;;;;;;;;;;;3.26;64.33;99392.91;3120859;28;19956;-74
2024/01/18 00:03:36;;;;;;;;;;;;;;;3.27;64.25;99387.72;3121336;28;19929;-74
2024/01/18 00:05:08;;;;;;;;;;;;;;;3.27;64.18;99387.72;3121239;28;20266;-76
2024/01/18 00:06:40;;;;;;;;;;;;;;;3.26;64.28;99395.47;3121572;28;20038;-74
2024/01/18 00:08:12;;;;;;;;;;;;;;;3.26;64.40;99396.31;3121123;28;19936;-72
2024/01/18 00:09:44;;;;;;;;;;;;;;;3.24;64.55;99395.50;3121568;28;20023;-73
2024/01/18 00:11:14;;;;;;;;;;;;;;;3.22;64.56;99399.81;3121239;28;19921;-73
2024/01/18 00:12:46;;;;;;;;;;;;;;;3.21;64.97;99387.84;3121423;28;19921;-74
2024/01/18 00:14:16;;;;;;;;;;;;;;;3.19;64.83;99385.31;3121123;28;19936;-74
2024/01/18 00:15:48;;;;;;;;;;;;;;;3.19;65.00;99384.44;3120810;28;19925;-74
2024/01/18 00:17:19;;;;;;;;;;;;;;;3.18;64.97;99378.47;3121233;28;20394;-74
2024/01/18 00:18:50;;;;;;;;;;;;;;;3.19;65.04;99385.31;3121183;28;19921;-72
2024/01/18 00:20:24;;;;;;;;;;;;;;;3.19;65.29;99385.31;3121082;28;19958;-72
2024/01/18 00:21:54;;;;;;;;;;;;;;;3.19;65.27;99387.03;3121171;28;19964;-72
2024/01/18 00:23:27;;;;;;;;;;;;;;;3.19;65.22;99384.44;3120994;28;19924;-73
2024/01/18 00:24:58;;;;;;;;;;;;;;;3.21;65.23;99379.28;3121110;28;20287;-71
2024/01/18 00:26:29;;;;;;;;;;;;;;;3.22;65.21;99371.50;3121177;28;19928;-73
2024/01/18 00:28:00;;;;;;;;;;;;;;;3.24;65.05;99372.34;3120766;28;20314;-72
2024/01/18 00:29:32;;;;;;;;;;;;;;;3.26;65.03;99386.03;3121132;28;19928;-71
2024/01/18 00:31:03;;;;;;;;;;;;;;;3.28;65.02;99376.53;3120798;28;19947;-71
2024/01/18 00:32:34;;;;;;;;;;;;;;;3.29;64.90;99374.81;3120723;28;19924;-71
2024/01/18 00:34:05;;;;;;;;;;;;;;;3.31;64.97;99384.19;3120952;28;19920;-70
2024/01/18 00:35:36;;;;;;;;;;;;;;;3.31;65.02;99376.47;3121010;28;19924;-72
2024/01/18 00:37:07;;;;;;;;;;;;;;;3.30;65.08;99369.63;3121042;28;20314;-72
2024/01/18 00:38:40;;;;;;;;;;;;;;;3.30;65.14;99369.63;3121153;28;19921;-71
2024/01/18 00:40:12;;;;;;;;;;;;;;;3.32;65.05;99369.59;3121015;28;20366;-71
2024/01/18 00:41:43;;;;;;;;;;;;;;;3.33;65.13;99361.00;3120835;28;20038;-72
2024/01/18 00:43:14;;;;;;;;;;;;;;;3.34;65.09;99368.69;3120552;28;19925;-72
2024/01/18 00:44:46;;;;;;;;;;;;;;;3.36;64.97;99354.03;3120947;28;20299;-75
2024/01/18 00:46:17;;;;;;;;;;;;;;;3.37;64.96;99358.31;3120738;28;19935;-74
2024/01/18 00:47:49;;;;;;;;;;;;;;;3.37;64.95;99355.75;3120804;28;19920;-74
2024/01/18 00:49:19;;;;;;;;;;;;;;;3.39;64.90;99350.56;3120786;28;20398;-71
2024/01/18 00:50:51;;;;;;;;;;;;;;;3.40;64.88;99357.38;3120713;28;19921;-72
2024/01/18 00:52:21;;;;;;;;;;;;;;;3.41;64.82;99356.53;3120812;28;20390;-72
2024/01/18 00:53:54;;;;;;;;;;;;;;;3.41;64.90;99353.94;3120736;28;19928;-71
2024/01/18 00:55:25;;;;;;;;;;;;;;;3.41;64.81;99346.22;3120691;28;19977;-72
2024/01/18 00:56:56;;;;;;;;;;;;;;;3.44;64.97;99345.31;3115009;28;19932;-72
2024/01/18 00:58:27;;;;;;;;;;;;;;;3.45;64.76;99345.25;3120779;28;19928;-72
2024/01/18 00:59:58;;;;;;;;;;;;;;;3.47;64.61;99346.06;3120496;28;19944;-72
2024/01/18 01:01:29;;;;;;;;;;;;;;;3.50;64.66;99342.59;3120581;28;20412;-72
2024/01/18 01:03:01;;;;;;;;;;;;;;;3.51;64.57;99342.53;3120849;28;19925;-73
2024/01/18 01:04:31;;;;;;;;;;;;;;;3.53;64.59;99332.22;3119810;28;20023;-72
2024/01/18 01:06:03;;;;;;;;;;;;;;;3.55;64.57;99325.28;3120701;28;19932;-73
2024/01/18 01:07:33;;;;;;;;;;;;;;;3.56;64.57;99327.00;3120859;28;19925;-73
2024/01/18 01:09:06;;;;;;;;;;;;;;;3.56;64.54;99322.69;3120638;28;19925;-72
2024/01/18 01:10:38;;;;;;;;;;;;;;;3.58;64.49;99328.66;3120674;28;19928;-73
2024/01/18 01:12:08;;;;;;;;;;;;;;;3.59;64.53;99326.91;3120448;28;19921;-72
2024/01/18 01:13:40;;;;;;;;;;;;;;;3.59;64.44;99316.63;3120424;28;20059;-74
2024/01/18 01:15:11;;;;;;;;;;;;;;;3.61;64.38;99314.88;3120861;28;20386;-75
2024/01/18 01:16:43;;;;;;;;;;;;;;;3.60;64.28;99314.00;3120308;28;20011;-73
2024/01/18 01:18:13;;;;;;;;;;;;;;;3.61;64.34;99314.88;3120675;28;19924;-74
2024/01/18 01:19:45;;;;;;;;;;;;;;;3.61;64.35;99310.56;3120731;28;19925;-74
2024/01/18 01:21:16;;;;;;;;;;;;;;;3.60;64.38;99311.41;3120315;28;19925;-75
2024/01/18 01:22:47;;;;;;;;;;;;;;;3.62;64.38;99308.81;3120543;28;19921;-76
2024/01/18 01:24:19;;;;;;;;;;;;;;;3.63;64.44;99315.66;3120532;28;20283;-76
2024/01/18 01:25:50;;;;;;;;;;;;;;;3.64;64.37;99301.91;3120389;28;19925;-75
2024/01/18 01:27:21;;;;;;;;;;;;;;;3.65;64.28;99301.03;3120381;28;19940;-75
2024/01/18 01:28:52;;;;;;;;;;;;;;;3.66;64.35;99294.97;3124416;28;19921;-76
2024/01/18 01:30:24;;;;;;;;;;;;;;;3.68;64.29;99302.69;3119988;28;20526;-76
2024/01/18 01:31:54;;;;;;;;;;;;;;;3.68;64.37;99300.94;3120606;28;20405;-76
2024/01/18 01:33:26;;;;;;;;;;;;;;;3.68;64.48;99295.78;3120483;28;19924;-75
2024/01/18 01:34:56;;;;;;;;;;;;;;;3.70;64.39;99294.03;3120265;28;20397;-75
2024/01/18 01:36:28;;;;;;;;;;;;;;;3.71;64.38;99294.88;3120617;28;19928;-74
2024/01/18 01:37:58;;;;;;;;;;;;;;;3.72;64.41;99297.38;3120127;28;19921;-74
2024/01/18 01:39:31;;;;;;;;;;;;;;;3.73;64.39;99293.94;3120308;28;19944;-74
2024/01/18 01:41:02;;;;;;;;;;;;;;;3.73;64.35;99299.09;3108116;28;19932;-77
2024/01/18 01:42:33;;;;;;;;;;;;;;;3.73;64.46;99293.94;3119919;28;20019;-73
2024/01/18 01:44:04;;;;;;;;;;;;;;;3.74;64.54;99302.53;3120378;28;19921;-74
2024/01/18 01:45:35;;;;;;;;;;;;;;;3.74;64.60;99300.78;3120127;28;19932;-74
2024/01/18 01:47:06;;;;;;;;;;;;;;;3.75;64.54;99302.47;3120033;28;19932;-75
2024/01/18 01:48:38;;;;;;;;;;;;;;;3.74;64.56;99298.22;3120124;28;20326;-74
2024/01/18 01:50:09;;;;;;;;;;;;;;;3.77;64.65;99299.88;3119847;28;19924;-73
2024/01/18 01:51:48;;;;;;;;;;;;;;;3.78;64.80;99302.38;3120157;28;19928;-73
2024/01/18 01:53:19;;;;;;;;;;;;;;;3.77;64.82;99294.72;3120158;28;19993;-73
2024/01/18 01:54:52;;;;;;;;;;;;;;;3.75;64.99;99296.47;3119862;28;20015;-73
2024/01/18 01:56:23;;;;;;;;;;;;;;;3.73;65.12;99287.97;3119788;28;19921;-74
2024/01/18 01:57:55;;;;;;;;;;;;;;;3.70;65.32;99278.59;3120023;28;19921;-74
2024/01/18 01:59:25;;;;;;;;;;;;;;;3.71;65.35;99287.16;3120254;28;19925;-74
2024/01/18 02:00:57;;;;;;;;;;;;;;;3.71;65.39;99289.72;3120039;28;19932;-74
2024/01/18 02:02:28;;;;;;;;;;;;;;;3.72;65.36;99286.25;3120527;28;19920;-74
2024/01/18 02:03:59;;;;;;;;;;;;;;;3.71;65.35;99269.97;3120280;28;20420;-72
2024/01/18 02:05:30;;;;;;;;;;;;;;;3.72;65.38;99268.22;3120373;28;19983;-73
2024/01/18 02:07:01;;;;;;;;;;;;;;;3.42;65.43;99217.47;3120115;28;19925;-73
2024/01/18 02:08:32;;;;;;;;;;;;;;;3.72;65.32;99260.50;3120101;28;19937;-74
2024/01/18 02:10:05;;;;;;;;;;;;;;;3.72;65.35;99263.91;3120116;28;19931;-74
2024/01/18 02:11:36;;;;;;;;;;;;;;;3.71;65.34;99259.66;3120200;28;19932;-73
2024/01/18 02:13:08;;;;;;;;;;;;;;;3.72;65.43;99252.78;3119738;28;19932;-73
2024/01/18 02:14:38;;;;;;;;;;;;;;;3.72;65.43;99251.03;3119722;28;19921;-72
2024/01/18 02:16:10;;;;;;;;;;;;;;;3.72;65.54;99256.19;3112481;28;19933;-74
2024/01/18 02:17:41;;;;;;;;;;;;;;;3.71;65.42;99256.25;3115010;28;20318;-74
2024/01/18 02:19:12;;;;;;;;;;;;;;;3.70;65.55;99259.69;3117283;28;19931;-73
2024/01/18 02:20:43;;;;;;;;;;;;;;;3.69;65.58;99252.84;3112985;28;19921;-74
2024/01/18 02:22:17;;;;;;;;;;;;;;;3.68;65.58;99254.59;3119970;28;19939;-74
2024/01/18 02:23:51;;;;;;;;;;;;;;;3.69;65.57;99247.72;3119578;28;19928;-74
2024/01/18 02:25:26;;;;;;;;;;;;;;;3.67;65.74;99246.88;3119576;28;20432;-74
2024/01/18 02:26:56;;;;;;;;;;;;;;;3.63;65.91;99244.41;3119657;28;19932;-73
2024/01/18 02:28:28;;;;;;;;;;;;;;;3.62;66.04;99245.28;3119556;28;19936;-75
2024/01/18 02:29:58;;;;;;;;;;;;;;;3.62;66.00;99250.44;3119770;28;19943;-75
2024/01/18 02:31:30;;;;;;;;;;;;;;;3.62;65.97;99247.88;3119374;28;19921;-75
2024/01/18 02:33:00;;;;;;;;;;;;;;;3.63;65.89;99244.41;3119205;28;19921;-75
2024/01/18 02:34:32;;;;;;;;;;;;;;;3.64;65.63;99242.69;3119769;28;19925;-76
2024/01/18 02:36:03;;;;;;;;;;;;;;;3.64;65.75;99248.69;3119642;28;20335;-75
2024/01/18 02:37:34;;;;;;;;;;;;;;;3.64;65.95;99242.69;3119999;28;19925;-75
2024/01/18 02:39:05;;;;;;;;;;;;;;;3.63;65.86;99241.81;3119719;28;19921;-73
2024/01/18 02:40:38;;;;;;;;;;;;;;;3.64;65.89;99245.25;3119787;28;20370;-75
2024/01/18 02:42:09;;;;;;;;;;;;;;;3.64;66.08;99240.13;3119569;28;19921;-74
2024/01/18 02:43:41;;;;;;;;;;;;;;;3.65;65.94;99240.06;3119279;28;19921;-74
2024/01/18 02:45:11;;;;;;;;;;;;;;;3.66;65.85;99243.47;3119380;28;20413;-74
2024/01/18 02:46:43;;;;;;;;;;;;;;;3.65;65.93;99242.63;3119517;28;19929;-72
2024/01/18 02:48:13;;;;;;;;;;;;;;;3.63;66.06;99230.69;3119371;28;19921;-76
2024/01/18 02:49:45;;;;;;;;;;;;;;;3.62;65.97;99235.00;3119842;28;19921;-73
2024/01/18 02:51:15;;;;;;;;;;;;;;;3.62;66.07;99242.72;3119605;28;20020;-71
2024/01/18 02:52:47;;;;;;;;;;;;;;;3.62;66.14;99247.03;3119577;28;19921;-72
2024/01/18 02:54:18;;;;;;;;;;;;;;;3.62;66.12;99236.72;3119465;28;19932;-73
2024/01/18 02:55:51;;;;;;;;;;;;;;;3.62;66.29;99236.72;3119486;28;20258;-72
2024/01/18 02:57:21;;;;;;;;;;;;;;;3.62;66.16;99242.72;3119813;28;19925;-73
2024/01/18 02:58:53;;;;;;;;;;;;;;;3.62;66.08;99237.56;3119492;28;19929;-73
2024/01/18 03:00:23;;;;;;;;;;;;;;;3.62;66.09;99235.00;3119067;28;20387;-71
2024/01/18 03:01:55;;;;;;;;;;;;;;;3.63;66.09;99231.53;3119455;28;19921;-71
2024/01/18 03:03:26;;;;;;;;;;;;;;;3.62;66.15;99235.00;3119332;28;19925;-71
2024/01/18 03:04:57;;;;;;;;;;;;;;;3.64;66.22;99232.41;3119242;28;19925;-70
2024/01/18 03:06:28;;;;;;;;;;;;;;;3.64;66.19;99234.97;3119575;28;19925;-72
2024/01/18 03:08:00;;;;;;;;;;;;;;;3.65;66.03;99229.75;3119438;28;19921;-71
2024/01/18 03:09:30;;;;;;;;;;;;;;;3.66;66.03;99220.28;3119606;28;19928;-72
2024/01/18 03:11:03;;;;;;;;;;;;;;;3.68;66.00;99226.25;3119413;28;19936;-72
2024/01/18 03:12:37;;;;;;;;;;;;;;;3.69;66.01;99222.78;3119160;28;20333;-72
2024/01/18 03:14:08;;;;;;;;;;;;;;;3.71;65.88;99223.59;3119553;28;19932;-71
2024/01/18 03:15:39;;;;;;;;;;;;;;;3.71;65.92;99215.88;3119330;28;19929;-72
2024/01/18 03:17:10;;;;;;;;;;;;;;;3.72;65.76;99214.16;3119315;28;20390;-72
2024/01/18 03:18:43;;;;;;;;;;;;;;;3.73;65.65;99208.13;3119592;28;19925;-72
2024/01/18 03:20:15;;;;;;;;;;;;;;;3.74;65.57;99208.06;3120154;28;19932;-71
2024/01/18 03:21:45;;;;;;;;;;;;;;;3.75;65.63;99209.75;3119534;28;19952;-71
2024/01/18 03:23:17;;;;;;;;;;;;;;;3.76;65.58;99206.31;3119305;28;20414;-72
2024/01/18 03:24:47;;;;;;;;;;;;;;;3.76;65.52;99201.16;3119426;28;20290;-71
2024/01/18 03:26:20;;;;;;;;;;;;;;;3.77;65.48;99196.84;3119477;28;19925;-71
2024/01/18 03:27:51;;;;;;;;;;;;;;;3.76;65.47;99201.16;3120874;28;19931;-72
2024/01/18 03:29:22;;;;;;;;;;;;;;;3.77;65.22;99191.69;3121487;28;19944;-72
2024/01/18 03:30:53;;;;;;;;;;;;;;;3.76;65.39;99193.44;3121708;28;19936;-73
2024/01/18 03:32:24;;;;;;;;;;;;;;;3.76;65.58;99193.44;3121847;28;19944;-70
2024/01/18 03:33:55;;;;;;;;;;;;;;;3.75;65.44;99203.75;3121781;28;20413;-71
2024/01/18 03:35:26;;;;;;;;;;;;;;;3.77;65.56;99202.00;3121811;28;19925;-72
2024/01/18 03:36:57;;;;;;;;;;;;;;;3.76;65.49;99198.59;3121723;28;20007;-72
2024/01/18 03:38:29;;;;;;;;;;;;;;;3.77;65.53;99197.69;3121836;28;20667;-73
2024/01/18 03:39:59;;;;;;;;;;;;;;;3.78;65.52;99195.94;3121738;28;20110;-73
2024/01/18 03:41:32;;;;;;;;;;;;;;;3.78;65.61;99199.38;3121620;28;19921;-73
2024/01/18 03:43:03;;;;;;;;;;;;;;;3.77;65.47;99197.69;3121384;28;19932;-73
2024/01/18 03:44:34;;;;;;;;;;;;;;;3.79;65.48;99202.81;3121716;28;20366;-73
2024/01/18 03:46:05;;;;;;;;;;;;;;;3.80;65.41;99201.91;3121457;28;19943;-73
2024/01/18 03:47:36;;;;;;;;;;;;;;;3.80;65.45;99194.19;3121642;28;19925;-75
2024/01/18 03:49:07;;;;;;;;;;;;;;;3.80;65.45;99195.03;3121460;28;19932;-75
2024/01/18 03:50:39;;;;;;;;;;;;;;;3.80;65.51;99192.44;3121761;28;19921;-73
2024/01/18 03:52:09;;;;;;;;;;;;;;;3.81;65.52;99196.72;3121619;28;19929;-72
2024/01/18 03:53:43;;;;;;;;;;;;;;;3.81;65.62;99193.28;3121585;28;19928;-71
2024/01/18 03:55:14;;;;;;;;;;;;;;;3.81;65.45;99201.84;3121572;28;19928;-73
2024/01/18 03:56:48;;;;;;;;;;;;;;;3.81;65.33;99198.44;3121395;28;19928;-75
2024/01/18 03:58:18;;;;;;;;;;;;;;;3.80;65.47;99201.91;3121373;28;20524;-74
2024/01/18 03:59:50;;;;;;;;;;;;;;;3.80;65.54;99200.19;3121680;28;19996;-75
2024/01/18 04:01:20;;;;;;;;;;;;;;;3.82;65.46;99198.41;3121108;28;20338;-72
2024/01/18 04:02:52;;;;;;;;;;;;;;;3.84;65.36;99198.34;3121293;28;19925;-72
2024/01/18 04:04:23;;;;;;;;;;;;;;;3.84;65.47;99199.19;3121526;28;20349;-72
2024/01/18 04:05:55;;;;;;;;;;;;;;;3.85;65.55;99198.34;3121543;28;19932;-72
2024/01/18 04:07:26;;;;;;;;;;;;;;;3.85;65.60;99193.19;3121310;28;19925;-73
2024/01/18 04:08:57;;;;;;;;;;;;;;;3.86;65.48;99199.16;3121429;28;19928;-74
2024/01/18 04:10:28;;;;;;;;;;;;;;;3.87;65.62;99199.16;3121451;28;19921;-73
2024/01/18 04:12:01;;;;;;;;;;;;;;;3.86;65.64;99197.44;3121522;28;19925;-74
2024/01/18 04:13:33;;;;;;;;;;;;;;;3.47;65.75;99135.00;3121365;28;19925;-71
2024/01/18 04:15:04;;;;;;;;;;;;;;;3.55;65.83;99147.66;3121131;28;19924;-73
2024/01/18 04:16:35;;;;;;;;;;;;;;;3.81;65.90;99194.13;3120917;28;19979;-74
2024/01/18 04:18:06;;;;;;;;;;;;;;;3.80;65.93;99195.03;3121046;28;19925;-73
2024/01/18 04:19:38;;;;;;;;;;;;;;;3.79;66.04;99195.94;3121291;28;20366;-73
2024/01/18 04:21:08;;;;;;;;;;;;;;;3.80;66.25;99191.63;3121288;28;19925;-73
2024/01/18 04:22:40;;;;;;;;;;;;;;;3.81;66.19;99204.44;3121255;28;19978;-72
2024/01/18 04:24:10;;;;;;;;;;;;;;;3.80;66.19;99207.91;3121499;28;19992;-72
2024/01/18 04:25:42;;;;;;;;;;;;;;;3.80;66.31;99200.19;3121166;28;20482;-72
2024/01/18 04:27:14;;;;;;;;;;;;;;;3.11;66.42;99090.50;3121128;28;19928;-71
2024/01/18 04:28:46;;;;;;;;;;;;;;;3.80;66.39;99210.47;3121230;28;19931;-74
2024/01/18 04:30:16;;;;;;;;;;;;;;;3.80;66.39;99207.91;3120888;28;19932;-70
2024/01/18 04:31:48;;;;;;;;;;;;;;;3.80;66.50;99213.06;3120982;28;19929;-73
2024/01/18 04:33:18;;;;;;;;;;;;;;;3.79;66.53;99216.53;3120891;28;20425;-71
2024/01/18 04:34:50;;;;;;;;;;;;;;;3.79;66.55;99224.25;3120780;28;19925;-70
2024/01/18 04:36:21;;;;;;;;;;;;;;;3.78;66.83;99216.56;3121310;28;19936;-71
2024/01/18 04:37:52;;;;;;;;;;;;;;;3.77;67.20;99218.28;3114159;28;19950;-70
2024/01/18 04:39:24;;;;;;;;;;;;;;;3.76;66.88;99224.34;3120772;28;20007;-71
2024/01/18 04:40:54;;;;;;;;;;;;;;;3.74;67.28;99214.97;3120964;28;19964;-71
2024/01/18 04:42:27;;;;;;;;;;;;;;;3.74;67.27;99207.22;3120734;28;19924;-70
2024/01/18 04:43:59;;;;;;;;;;;;;;;3.73;67.44;99211.53;3121283;28;20345;-72
2024/01/18 04:45:29;;;;;;;;;;;;;;;3.72;67.60;99201.28;3120892;28;19921;-72
2024/01/18 04:47:01;;;;;;;;;;;;;;;3.70;67.75;99196.19;3121000;28;20404;-72
2024/01/18 04:48:31;;;;;;;;;;;;;;;3.70;67.74;99197.88;3120986;28;19932;-72
2024/01/18 04:50:03;;;;;;;;;;;;;;;3.69;67.85;99194.47;3121049;28;19932;-72
2024/01/18 04:51:34;;;;;;;;;;;;;;;3.71;67.90;99187.56;3120807;28;20416;-75
2024/01/18 04:53:05;;;;;;;;;;;;;;;3.71;67.90;99181.56;3120678;28;19932;-74
2024/01/18 04:54:36;;;;;;;;;;;;;;;3.72;67.77;99178.94;3120807;28;19925;-73
2024/01/18 04:56:07;;;;;;;;;;;;;;;3.71;67.93;99184.13;3120786;28;19928;-73
2024/01/18 04:57:39;;;;;;;;;;;;;;;3.71;67.63;99184.13;3120380;28;19921;-74
2024/01/18 04:59:11;;;;;;;;;;;;;;;3.71;67.78;99192.72;3120590;28;19929;-74
2024/01/18 05:00:42;;;;;;;;;;;;;;;3.71;67.78;99191.88;3120761;28;19921;-74
2024/01/18 05:02:13;;;;;;;;;;;;;;;3.71;67.88;99202.16;3120555;28;20414;-74
2024/01/18 05:03:45;;;;;;;;;;;;;;;3.71;67.88;99186.72;3120870;28;19936;-74
2024/01/18 05:05:16;;;;;;;;;;;;;;;3.68;68.11;99187.63;3120753;28;19931;-76
2024/01/18 05:06:47;;;;;;;;;;;;;;;3.70;68.20;99185.00;3120944;28;19921;-76
2024/01/18 05:08:18;;;;;;;;;;;;;;;3.69;68.14;99184.16;3120598;28;19925;-75
2024/01/18 05:09:49;;;;;;;;;;;;;;;3.69;68.21;99183.31;3120646;28;19970;-74
2024/01/18 05:11:20;;;;;;;;;;;;;;;3.70;68.19;99182.44;3120543;28;19928;-71
2024/01/18 05:12:53;;;;;;;;;;;;;;;3.69;68.11;99184.16;3117502;28;19925;-72
2024/01/18 05:14:24;;;;;;;;;;;;;;;3.70;68.09;99177.28;3118593;28;19929;-70
2024/01/18 05:15:59;;;;;;;;;;;;;;;3.70;68.06;99178.16;3120389;28;19928;-71
2024/01/18 05:17:34;;;;;;;;;;;;;;;3.71;67.95;99172.09;3120677;28;20417;-73
2024/01/18 05:19:06;;;;;;;;;;;;;;;3.72;67.86;99170.38;3120839;28;19928;-67
2024/01/18 05:20:37;;;;;;;;;;;;;;;3.73;67.90;99170.34;3120753;28;20279;-69
2024/01/18 05:22:09;;;;;;;;;;;;;;;3.74;67.82;99171.19;3120593;28;19928;-72
2024/01/18 05:23:39;;;;;;;;;;;;;;;3.74;67.76;99172.03;3120735;28;19931;-67
2024/01/18 05:25:11;;;;;;;;;;;;;;;3.75;67.84;99167.72;3120145;28;20337;-71
2024/01/18 05:26:42;;;;;;;;;;;;;;;3.77;67.89;99169.34;3114923;28;19925;-69
2024/01/18 05:28:15;;;;;;;;;;;;;;;3.79;68.01;99175.31;3115033;28;19932;-70
2024/01/18 05:29:47;;;;;;;;;;;;;;;3.82;67.88;99171.81;3112384;28;19925;-68
2024/01/18 05:31:19;;;;;;;;;;;;;;;3.83;67.76;99174.34;3116646;28;19921;-70
2024/01/18 05:32:50;;;;;;;;;;;;;;;3.88;67.97;99174.22;3117221;28;19921;-70
2024/01/18 05:34:21;;;;;;;;;;;;;;;3.90;67.87;99172.44;3120820;28;19929;-72
2024/01/18 05:35:52;;;;;;;;;;;;;;;3.94;67.93;99171.47;3120961;28;19932;-65
2024/01/18 05:37:23;;;;;;;;;;;;;;;3.97;67.88;99167.97;3120478;28;19944;-70
2024/01/18 05:38:54;;;;;;;;;;;;;;;3.97;68.02;99162.81;3117948;28;19932;-74
2024/01/18 05:40:26;;;;;;;;;;;;;;;3.97;67.84;99167.97;3120302;28;19921;-69
2024/01/18 05:41:56;;;;;;;;;;;;;;;3.96;67.89;99169.69;3117451;28;19959;-69
2024/01/18 05:43:29;;;;;;;;;;;;;;;3.96;67.85;99168.84;3113548;28;19921;-72
2024/01/18 05:45:00;;;;;;;;;;;;;;;3.97;67.87;99165.41;3120265;28;19925;-74
2024/01/18 05:46:31;;;;;;;;;;;;;;;3.95;67.83;99167.16;3120225;28;20025;-74
2024/01/18 05:48:02;;;;;;;;;;;;;;;3.95;67.93;99168.00;3120322;28;20413;-73
2024/01/18 05:49:33;;;;;;;;;;;;;;;3.97;67.91;99165.41;3119811;28;19929;-69
2024/01/18 05:51:05;;;;;;;;;;;;;;;3.96;67.94;99177.41;3118107;28;20363;-69
2024/01/18 05:52:37;;;;;;;;;;;;;;;3.97;67.96;99178.28;3120067;28;19931;-73
2024/01/18 05:54:08;;;;;;;;;;;;;;;3.97;67.92;99176.53;3120186;28;20421;-74
2024/01/18 05:55:40;;;;;;;;;;;;;;;3.98;68.05;99172.22;3120144;28;20012;-68
2024/01/18 05:57:10;;;;;;;;;;;;;;;3.99;67.94;99166.19;3120035;28;19928;-71
2024/01/18 05:58:43;;;;;;;;;;;;;;;3.99;67.99;99176.47;3120441;28;19925;-73
2024/01/18 06:00:17;;;;;;;;;;;;;;;3.97;68.03;99178.28;3117204;28;19947;-71
2024/01/18 06:01:49;;;;;;;;;;;;;;;3.98;68.17;99178.22;3113574;28;19960;-72
2024/01/18 06:03:20;;;;;;;;;;;;;;;4.01;68.22;99170.41;3117260;28;19921;-73
2024/01/18 06:04:52;;;;;;;;;;;;;;;4.05;68.08;99171.16;3120305;28;19924;-71
2024/01/18 06:06:22;;;;;;;;;;;;;;;4.08;68.04;99181.38;3112921;28;19979;-69
2024/01/18 06:07:54;;;;;;;;;;;;;;;4.08;68.02;99186.53;3117917;28;20467;-70
2024/01/18 06:09:24;;;;;;;;;;;;;;;4.07;67.98;99187.41;3123603;28;19924;-71
2024/01/18 06:10:56;;;;;;;;;;;;;;;4.04;68.09;99185.78;3119739;28;19927;-70
2024/01/18 06:12:27;;;;;;;;;;;;;;;4.04;68.12;99182.34;3119234;28;20410;-67
2024/01/18 06:14:00;;;;;;;;;;;;;;;4.04;68.11;99182.34;3119817;28;19925;-72
2024/01/18 06:15:31;;;;;;;;;;;;;;;4.06;68.13;99188.31;3119406;28;19925;-68
2024/01/18 06:17:03;;;;;;;;;;;;;;;4.05;68.25;99189.19;3111854;28;19933;-70
2024/01/18 06:18:36;;;;;;;;;;;;;;;4.05;68.17;99186.59;3119884;28;20320;-68
2024/01/18 06:20:08;;;;;;;;;;;;;;;4.03;68.22;99190.97;3119938;28;19986;-68
2024/01/18 06:21:39;;;;;;;;;;;;;;;4.00;68.31;99186.75;3120094;28;19921;-67
2024/01/18 06:23:12;;;;;;;;;;;;;;;3.99;68.40;99184.22;3119311;28;20425;-69
2024/01/18 06:24:44;;;;;;;;;;;;;;;3.99;68.36;99174.75;3119868;28;19928;-69
2024/01/18 06:26:15;;;;;;;;;;;;;;;3.99;68.40;99172.16;3119507;28;19994;-68
2024/01/18 06:27:47;;;;;;;;;;;;;;;4.00;68.31;99183.34;3119837;28;19925;-70
2024/01/18 06:29:19;;;;;;;;;;;;;;;4.01;68.29;99183.28;3119794;28;19921;-76
2024/01/18 06:30:50;;;;;;;;;;;;;;;4.03;68.15;99175.53;3119479;28;19928;-73
2024/01/18 06:32:21;;;;;;;;;;;;;;;4.04;68.18;99185.78;3119882;28;19925;-75
2024/01/18 06:33:56;;;;;;;;;;;;;;;4.06;68.22;99193.47;3119859;28;20303;-72
2024/01/18 06:35:27;;;;;;;;;;;;;;;4.04;68.25;99195.22;3119641;28;19970;-77
2024/01/18 06:36:58;;;;;;;;;;;;;;;4.05;68.13;99191.75;3119247;28;19925;-73
2024/01/18 06:38:29;;;;;;;;;;;;;;;4.04;68.32;99201.22;3119775;28;19921;-74
2024/01/18 06:40:00;;;;;;;;;;;;;;;4.05;68.24;99200.38;3119805;28;20360;-74
2024/01/18 06:41:32;;;;;;;;;;;;;;;4.06;67.92;99188.31;3119454;28;19924;-74
2024/01/18 06:43:03;;;;;;;;;;;;;;;4.08;68.19;99189.09;3119481;28;20493;-73
2024/01/18 06:44:36;;;;;;;;;;;;;;;4.09;68.06;99190.81;3108598;28;19926;-73
2024/01/18 06:46:12;;;;;;;;;;;;;;;4.07;68.20;99179.69;3115591;28;19921;-74
2024/01/18 06:47:44;;;;;;;;;;;;;;;4.06;68.15;99181.44;3108820;28;19925;-74
2024/01/18 06:49:15;;;;;;;;;;;;;;;4.07;68.11;99180.53;3105456;28;20009;-75
2024/01/18 06:50:47;;;;;;;;;;;;;;;4.09;68.13;99185.66;3109222;28;19933;-74
2024/01/18 06:52:20;;;;;;;;;;;;;;;4.09;68.10;99189.06;3111513;28;19940;-73
2024/01/18 06:53:52;;;;;;;;;;;;;;;4.13;67.90;99201.88;3107599;28;19974;-72
2024/01/18 06:55:24;;;;;;;;;;;;;;;4.12;68.11;99197.59;3107511;28;20404;-72
2024/01/18 06:56:54;;;;;;;;;;;;;;;4.12;68.00;99180.41;3111216;28;19932;-73
2024/01/18 06:58:26;;;;;;;;;;;;;;;4.14;67.99;99178.66;3118149;28;19925;-73
2024/01/18 06:59:58;;;;;;;;;;;;;;;4.13;68.08;99178.66;3116567;28;21227;-72
2024/01/18 07:01:30;;;;;;;;;;;;;;;4.14;68.10;99176.06;3116764;28;19925;-72
2024/01/18 07:03:00;;;;;;;;;;;;;;;4.15;67.98;99177.75;3120403;28;19928;-70
2024/01/18 07:04:32;;;;;;;;;;;;;;;4.16;67.86;99187.16;3121231;28;20097;-72
2024/01/18 07:06:03;;;;;;;;;;;;;;;4.16;67.96;99179.41;3120434;28;19925;-73
2024/01/18 07:07:34;;;;;;;;;;;;;;;4.18;67.78;99185.38;3121192;28;19947;-77
2024/01/18 07:09:06;;;;;;;;;;;;;;;4.19;67.81;99186.22;3121024;28;19925;-75
2024/01/18 07:10:37;;;;;;;;;;;;;;;4.20;67.70;99180.16;3113185;28;19925;-73
2024/01/18 07:12:10;;;;;;;;;;;;;;;4.22;67.65;99175.81;3113588;28;20327;-72
2024/01/18 07:13:41;;;;;;;;;;;;;;;4.21;67.74;99174.97;3118986;28;19921;-73
2024/01/18 07:15:15;;;;;;;;;;;;;;;4.22;67.70;99175.81;3113009;28;19922;-75
2024/01/18 07:16:46;;;;;;;;;;;;;;;4.23;67.63;99172.34;3118605;28;19925;-73
2024/01/18 07:18:18;;;;;;;;;;;;;;;4.24;67.62;99174.06;3117261;28;19925;-73
2024/01/18 07:19:49;;;;;;;;;;;;;;;4.26;67.60;99170.56;3120876;28;19964;-73
2024/01/18 07:21:20;;;;;;;;;;;;;;;4.27;67.60;99185.09;3120214;28;19925;-72
2024/01/18 07:22:51;;;;;;;;;;;;;;;4.30;67.59;99190.19;3121624;28;19925;-69
2024/01/18 07:24:23;;;;;;;;;;;;;;;4.31;67.58;99183.28;3121735;28;19936;-68
2024/01/18 07:25:53;;;;;;;;;;;;;;;4.34;67.67;99178.88;3121582;28;20307;-70
2024/01/18 07:27:25;;;;;;;;;;;;;;;4.38;67.43;99169.34;3120818;28;19927;-72
2024/01/18 07:28:56;;;;;;;;;;;;;;;4.39;67.36;99175.34;3121686;28;19936;-69
2024/01/18 07:30:29;;;;;;;;;;;;;;;4.40;67.56;99177.84;3121514;28;19924;-74
2024/01/18 07:31:59;;;;;;;;;;;;;;;4.43;67.49;99176.91;3121780;28;19931;-69
2024/01/18 07:33:31;;;;;;;;;;;;;;;4.45;67.45;99167.41;3121511;28;19928;-75
2024/01/18 07:35:02;;;;;;;;;;;;;;;4.47;67.35;99173.38;3121536;28;19998;-73
2024/01/18 07:36:33;;;;;;;;;;;;;;;4.49;67.34;99169.84;3118486;28;19921;-74
2024/01/18 07:38:04;;;;;;;;;;;;;;;4.51;67.23;99167.22;3110313;28;19933;-74
2024/01/18 07:39:35;;;;;;;;;;;;;;;4.54;67.07;99164.56;3109749;28;19929;-74
2024/01/18 07:41:07;;;;;;;;;;;;;;;4.56;67.10;99163.63;3117137;28;19925;-73
2024/01/18 07:42:38;;;;;;;;;;;;;;;4.60;67.12;99158.38;3116269;28;20560;-75
2024/01/18 07:44:09;;;;;;;;;;;;;;;4.63;67.11;99163.44;3113627;28;19921;-77
2024/01/18 07:45:43;;;;;;;;;;;;;;;4.65;67.06;99154.75;3117846;28;19921;-73
2024/01/18 07:47:14;;;;;;;;;;;;;;;4.66;67.20;99148.69;3112427;28;19934;-76
2024/01/18 07:48:45;;;;;;;;;;;;;;;4.49;66.93;99126.00;3121709;28;19935;-74
2024/01/18 07:50:16;;;;;;;;;;;;;;;4.72;66.90;99156.22;3121130;28;19975;-76
2024/01/18 07:51:48;;;;;;;;;;;;;;;4.77;66.94;99161.25;3121531;28;19921;-73
2024/01/18 07:53:20;;;;;;;;;;;;;;;4.79;67.03;99159.44;3121553;28;20304;-68
2024/01/18 07:54:51;;;;;;;;;;;;;;;4.81;66.91;99149.94;3114296;28;19964;-74
2024/01/18 07:56:23;;;;;;;;;;;;;;;4.84;66.87;99156.75;3121527;28;19920;-76
2024/01/18 07:57:53;;;;;;;;;;;;;;;4.84;66.87;99159.31;3121916;28;19921;-79
2024/01/18 07:59:25;;;;;;;;;;;;;;;4.88;66.80;99160.91;3121534;28;20343;-69
2024/01/18 08:00:57;;;;;;;;;;;;;;;4.88;66.88;99160.91;3114215;28;19924;-72
2024/01/18 08:02:29;;;;;;;;;;;;;;;4.90;66.83;99156.53;3121126;28;20299;-68